Time;durP1;ratioP1;P1;durP2;ratioP2;P2;SDS_P1;SDS_P2;PMS_P1;PMS_P2;Temp;Humidity;BMP_temperature;BMP_pressure;BME280_temperature;BME280_humidity;BME280_pressure;Samples;Min_cycle;Max_cycle;Signal;HPM_P1;HPM_P2
2021/04/08 00:01:33;;;;;;;7.75;2.00;;;4.90;75.00;;;;;;3583206;40;20024;-63
2021/04/08 00:03:59;;;;;;;9.48;1.73;;;5.00;75.50;;;;;;3582986;39;20370;-63
2021/04/08 00:06:25;;;;;;;9.18;2.03;;;5.10;75.10;;;;;;3579243;40;20100;-63
2021/04/08 00:08:51;;;;;;;13.85;2.05;;;5.10;74.40;;;;;;3579853;40;20024;-62
2021/04/08 00:11:16;;;;;;;7.68;1.38;;;5.10;74.60;;;;;;3583073;40;20028;-63
2021/04/08 00:13:42;;;;;;;11.55;2.03;;;5.10;74.40;;;;;;3585915;39;20028;-63
2021/04/08 00:16:08;;;;;;;6.93;1.77;;;5.10;73.60;;;;;;3587733;39;20909;-62
2021/04/08 00:18:33;;;;;;;6.55;1.40;;;5.10;73.70;;;;;;3584776;40;20318;-62
2021/04/08 00:20:59;;;;;;;7.78;1.33;;;5.10;73.70;;;;;;3580649;40;20036;-63
2021/04/08 00:23:25;;;;;;;17.25;2.08;;;5.10;74.20;;;;;;3578395;40;20386;-62
2021/04/08 00:25:51;;;;;;;7.07;1.63;;;5.10;73.80;;;;;;3585811;40;20032;-62
2021/04/08 00:28:17;;;;;;;10.20;1.80;;;5.10;73.70;;;;;;3583447;40;20038;-62
2021/04/08 00:30:43;;;;;;;8.07;2.00;;;5.00;73.50;;;;;;3579023;40;20327;-62
2021/04/08 00:33:14;;;;;;;3.35;1.27;;;4.90;73.40;;;;;;3580126;40;20017;-63
2021/04/08 00:35:40;;;;;;;6.38;2.15;;;4.90;73.60;;;;;;3582280;40;20024;-62
2021/04/08 00:38:07;;;;;;;6.43;1.40;;;5.00;73.60;;;;;;3585185;40;20033;-63
2021/04/08 00:40:33;;;;;;;5.50;1.33;;;5.00;73.10;;;;;;3586908;40;20031;-62
2021/04/08 00:42:58;;;;;;;6.10;1.80;;;4.90;73.90;;;;;;3585649;39;20036;-63
2021/04/08 00:45:24;;;;;;;7.90;2.58;;;4.90;73.60;;;;;;3583621;39;20032;-63
2021/04/08 00:47:50;;;;;;;9.60;1.70;;;5.00;73.90;;;;;;3587277;39;20034;-62
2021/04/08 00:50:16;;;;;;;8.77;1.75;;;5.00;73.80;;;;;;3586947;39;20044;-62
2021/04/08 00:52:50;;;;;;;6.00;1.60;;;5.00;73.50;;;;;;3584240;39;20065;-63
2021/04/08 00:55:18;;;;;;;6.18;1.70;;;5.00;74.20;;;;;;3579830;40;20039;-63
2021/04/08 00:57:45;;;;;;;4.35;1.58;;;5.00;74.00;;;;;;3580008;40;20024;-63
2021/04/08 01:00:11;;;;;;;7.03;1.27;;;5.00;73.70;;;;;;3583534;39;20394;-63
2021/04/08 01:02:37;;;;;;;7.60;1.40;;;5.00;73.70;;;;;;3585435;39;20024;-62
2021/04/08 01:05:03;;;;;;;7.65;1.35;;;5.00;73.30;;;;;;3588228;40;20388;-63
2021/04/08 01:07:32;;;;;;;10.70;1.63;;;5.00;74.00;;;;;;3586615;39;20027;-63
2021/04/08 01:09:59;;;;;;;5.10;2.00;;;5.00;73.30;;;;;;3582157;40;20166;-63
2021/04/08 01:12:25;;;;;;;4.28;1.58;;;5.00;73.60;;;;;;3580326;40;20323;-63
2021/04/08 01:14:51;;;;;;;9.68;1.38;;;5.00;74.80;;;;;;3580951;40;20059;-63
2021/04/08 01:17:23;;;;;;;10.02;1.70;;;5.10;74.90;;;;;;3583565;40;20061;-63
2021/04/08 01:20:08;;;;;;;9.30;2.17;;;5.10;74.40;;;;;;3580799;40;20059;-62
2021/04/08 01:22:51;;;;;;;4.20;1.30;;;5.20;74.90;;;;;;3586524;40;20032;-63
2021/04/08 01:25:41;;;;;;;4.43;1.50;;;5.20;74.20;;;;;;3584859;40;20017;-63
2021/04/08 01:28:20;;;;;;;5.05;1.38;;;5.20;74.30;;;;;;3581234;40;20617;-63
2021/04/08 01:30:49;;;;;;;9.98;1.50;;;5.20;74.30;;;;;;3586402;40;20109;-62
2021/04/08 01:33:24;;;;;;;8.68;1.60;;;5.20;74.00;;;;;;3584147;40;20043;-62
2021/04/08 01:35:52;;;;;;;8.05;1.65;;;5.30;74.20;;;;;;3581631;40;20055;-62
2021/04/08 01:38:38;;;;;;;6.20;2.20;;;5.30;74.40;;;;;;3577790;40;20024;-64
2021/04/08 01:41:05;;;;;;;5.25;1.77;;;5.40;73.60;;;;;;3582258;40;20390;-63
2021/04/08 01:43:44;;;;;;;5.43;1.45;;;5.40;73.80;;;;;;3584162;39;20036;-62
2021/04/08 01:46:11;;;;;;;7.30;1.60;;;5.40;74.40;;;;;;3578767;40;20068;-62
2021/04/08 01:48:37;;;;;;;5.00;1.85;;;5.30;74.10;;;;;;3581335;40;20160;-63
2021/04/08 01:51:05;;;;;;;7.95;1.63;;;5.30;74.10;;;;;;3584159;40;20418;-62
2021/04/08 01:53:35;;;;;;;9.68;2.00;;;5.20;74.40;;;;;;3587805;39;20028;-63
2021/04/08 01:56:02;;;;;;;6.28;1.70;;;5.30;74.40;;;;;;3586970;39;20080;-63
2021/04/08 01:58:29;;;;;;;6.72;1.65;;;5.30;74.50;;;;;;3583905;40;20028;-63
2021/04/08 02:00:57;;;;;;;13.23;1.45;;;5.30;74.00;;;;;;3580163;40;20044;-63
2021/04/08 02:03:24;;;;;;;5.40;1.73;;;5.30;74.50;;;;;;3579051;40;20033;-63
2021/04/08 02:05:50;;;;;;;5.65;1.70;;;5.40;74.30;;;;;;3581303;39;20064;-63
2021/04/08 02:08:18;;;;;;;12.02;1.98;;;5.30;73.90;;;;;;3584514;40;20028;-63
2021/04/08 02:10:44;;;;;;;6.32;2.03;;;5.30;74.20;;;;;;3584174;40;20542;-64
2021/04/08 02:13:13;;;;;;;13.68;2.08;;;5.30;74.20;;;;;;3581298;40;20071;-63
2021/04/08 02:15:42;;;;;;;7.10;1.45;;;5.40;73.80;;;;;;3583759;40;20110;-63
2021/04/08 02:18:12;;;;;;;9.70;1.77;;;5.40;73.90;;;;;;3587887;39;20027;-62
2021/04/08 02:20:39;;;;;;;8.15;1.50;;;5.40;73.50;;;;;;3587158;39;20027;-63
2021/04/08 02:23:05;;;;;;;5.32;1.25;;;5.20;72.90;;;;;;3583394;40;20020;-62
2021/04/08 02:25:37;;;;;;;5.15;1.10;;;5.20;73.50;;;;;;3580627;40;20039;-63
2021/04/08 02:28:07;;;;;;;7.75;1.60;;;5.20;73.70;;;;;;3586919;40;20089;-63
2021/04/08 02:30:46;;;;;;;7.82;1.40;;;5.20;74.20;;;;;;3584366;39;20028;-63
2021/04/08 02:33:17;;;;;;;4.07;1.45;;;5.20;73.90;;;;;;3580889;40;20029;-63
2021/04/08 02:35:43;;;;;;;5.35;1.27;;;5.20;73.00;;;;;;3578789;40;20043;-62
2021/04/08 02:38:09;;;;;;;7.75;2.20;;;5.10;73.50;;;;;;3580245;40;20598;-63
2021/04/08 02:40:35;;;;;;;3.55;1.05;;;5.10;74.30;;;;;;3584027;39;20028;-62
2021/04/08 02:43:01;;;;;;;8.73;1.65;;;5.00;73.70;;;;;;3586889;40;20109;-63
2021/04/08 02:45:27;;;;;;;8.07;1.30;;;5.00;74.60;;;;;;3584674;40;20052;-62
2021/04/08 02:47:52;;;;;;;7.97;1.50;;;5.00;74.20;;;;;;3583027;39;20041;-62
2021/04/08 02:50:18;;;;;;;8.00;1.45;;;5.10;73.60;;;;;;3579833;39;20359;-63
2021/04/08 02:52:50;;;;;;;6.22;1.30;;;5.10;73.50;;;;;;3576993;40;20738;-62
2021/04/08 02:55:22;;;;;;;6.15;1.50;;;5.10;73.40;;;;;;3580104;40;20056;-63
2021/04/08 02:57:55;;;;;;;6.22;1.00;;;5.10;73.80;;;;;;3580838;40;20031;-62
2021/04/08 03:00:25;;;;;;;6.63;1.35;;;5.10;73.00;;;;;;3578440;40;20020;-62
2021/04/08 03:02:53;;;;;;;5.68;1.70;;;5.10;73.40;;;;;;3581528;40;20508;-63
2021/04/08 03:05:20;;;;;;;8.48;1.80;;;5.00;74.10;;;;;;3574468;40;20153;-63
2021/04/08 03:07:50;;;;;;;5.25;1.30;;;5.00;74.10;;;;;;3586644;39;20066;-63
2021/04/08 03:10:16;;;;;;;5.22;1.23;;;5.00;74.40;;;;;;3585582;39;20037;-63
2021/04/08 03:12:50;;;;;;;6.85;1.48;;;5.10;74.30;;;;;;3582234;39;20690;-62
2021/04/08 03:15:22;;;;;;;7.97;1.75;;;5.10;74.20;;;;;;3578941;40;20047;-62
2021/04/08 03:17:50;;;;;;;5.13;1.50;;;5.00;74.40;;;;;;3582934;40;20028;-63
2021/04/08 03:20:17;;;;;;;7.05;2.08;;;5.00;74.20;;;;;;3584028;39;20013;-63
2021/04/08 03:22:43;;;;;;;7.72;2.53;;;5.00;74.20;;;;;;3580664;40;20041;-62
2021/04/08 03:25:10;;;;;;;8.32;1.60;;;5.00;74.30;;;;;;3579992;40;20055;-63
2021/04/08 03:27:38;;;;;;;5.22;1.52;;;4.90;74.40;;;;;;3582646;40;20321;-63
2021/04/08 03:30:09;;;;;;;8.50;2.20;;;4.80;74.60;;;;;;3587692;39;20526;-63
2021/04/08 03:32:34;;;;;;;15.55;2.45;;;4.90;74.80;;;;;;3588056;39;20027;-63
2021/04/08 03:35:00;;;;;;;8.10;2.53;;;5.00;74.50;;;;;;3588747;39;20036;-62
2021/04/08 03:37:26;;;;;;;10.20;2.28;;;5.00;74.00;;;;;;3589187;39;20819;-62
2021/04/08 03:39:52;;;;;;;5.85;1.73;;;5.10;73.50;;;;;;3586248;39;20040;-62
2021/04/08 03:42:18;;;;;;;7.15;2.00;;;5.00;73.70;;;;;;3588137;39;20045;-63
2021/04/08 03:44:44;;;;;;;5.97;1.50;;;5.10;73.80;;;;;;3584240;39;20715;-63
2021/04/08 03:47:13;;;;;;;8.88;1.65;;;5.20;73.90;;;;;;3589097;39;20024;-62
2021/04/08 03:49:40;;;;;;;8.82;1.63;;;5.10;73.70;;;;;;3591297;39;20637;-62
2021/04/08 03:52:07;;;;;;;9.75;2.17;;;5.00;73.90;;;;;;3586261;39;20028;-63
2021/04/08 03:54:35;;;;;;;7.65;2.38;;;4.80;74.20;;;;;;3586262;39;20505;-62
2021/04/08 03:57:02;;;;;;;15.82;2.30;;;4.80;75.50;;;;;;3587213;39;20129;-62
2021/04/08 03:59:29;;;;;;;9.00;1.73;;;4.80;75.30;;;;;;3587316;39;20456;-63
2021/04/08 04:01:56;;;;;;;8.38;1.55;;;4.80;74.90;;;;;;3588912;39;20034;-62
2021/04/08 04:04:24;;;;;;;11.00;2.17;;;4.80;74.20;;;;;;3587550;39;20027;-63
2021/04/08 04:06:52;;;;;;;10.77;1.98;;;4.90;74.40;;;;;;3586541;39;20032;-63
2021/04/08 04:09:18;;;;;;;11.60;1.80;;;4.90;74.40;;;;;;3585772;39;20020;-63
2021/04/08 04:11:46;;;;;;;7.80;1.95;;;4.80;74.30;;;;;;3588070;39;20024;-63
2021/04/08 04:14:15;;;;;;;14.18;1.92;;;4.80;74.40;;;;;;3577502;39;20321;-63
2021/04/08 04:16:44;;;;;;;8.98;1.98;;;4.70;74.40;;;;;;3586862;39;20040;-63
2021/04/08 04:19:11;;;;;;;13.82;2.47;;;4.70;74.60;;;;;;3582081;40;20084;-63
2021/04/08 04:21:37;;;;;;;17.52;2.90;;;4.70;74.60;;;;;;3580102;40;20037;-63
2021/04/08 04:24:04;;;;;;;9.43;2.22;;;4.80;74.00;;;;;;3590561;39;20047;-63
2021/04/08 04:26:30;;;;;;;6.47;1.83;;;4.80;73.00;;;;;;3585615;39;20032;-63
2021/04/08 04:28:56;;;;;;;8.80;2.00;;;4.90;73.60;;;;;;3579845;40;20137;-63
2021/04/08 04:31:22;;;;;;;14.30;2.10;;;4.90;73.00;;;;;;3580075;39;20036;-62
2021/04/08 04:33:47;;;;;;;12.27;2.08;;;4.90;73.00;;;;;;3586434;39;20036;-62
2021/04/08 04:36:13;;;;;;;10.60;2.67;;;4.80;73.00;;;;;;3587598;39;20032;-62
2021/04/08 04:38:39;;;;;;;14.88;2.58;;;4.80;73.10;;;;;;3582561;39;20029;-63
2021/04/08 04:41:05;;;;;;;9.15;1.77;;;4.80;73.40;;;;;;3588254;39;20905;-62
2021/04/08 04:43:30;;;;;;;9.73;2.28;;;4.80;73.80;;;;;;3584025;39;20395;-62
2021/04/08 04:45:56;;;;;;;12.25;1.95;;;4.70;73.60;;;;;;3588467;39;20039;-62
2021/04/08 04:48:22;;;;;;;15.93;2.25;;;4.70;73.30;;;;;;3586574;39;20103;-63
2021/04/08 04:50:51;;;;;;;10.45;2.15;;;4.80;73.40;;;;;;3584717;39;20024;-63
2021/04/08 04:53:17;;;;;;;4.80;1.52;;;4.80;72.90;;;;;;3584231;39;20123;-63
2021/04/08 04:55:42;;;;;;;7.75;1.70;;;4.80;72.90;;;;;;3588075;39;20044;-63
2021/04/08 04:58:08;;;;;;;8.80;1.60;;;4.80;72.40;;;;;;3586304;39;20039;-63
2021/04/08 05:00:34;;;;;;;9.48;2.00;;;4.90;72.20;;;;;;3585335;39;20043;-63
2021/04/08 05:02:59;;;;;;;14.65;2.08;;;5.00;72.20;;;;;;3586172;39;20073;-63
2021/04/08 05:05:25;;;;;;;15.32;2.53;;;5.10;71.90;;;;;;3590769;39;20051;-63
2021/04/08 05:07:51;;;;;;;8.07;2.55;;;5.10;71.80;;;;;;3590926;39;20043;-63
2021/04/08 05:10:16;;;;;;;10.85;2.30;;;5.10;71.30;;;;;;3587389;40;20032;-63
2021/04/08 05:12:42;;;;;;;7.15;1.63;;;5.10;71.00;;;;;;3588129;39;20124;-63
2021/04/08 05:15:08;;;;;;;9.80;2.22;;;5.10;71.40;;;;;;3587247;39;20051;-63
2021/04/08 05:17:34;;;;;;;6.65;1.67;;;5.10;70.60;;;;;;3586790;39;20486;-63
2021/04/08 05:20:00;;;;;;;13.32;2.15;;;5.10;71.40;;;;;;3583358;39;20032;-63
2021/04/08 05:22:26;;;;;;;8.70;2.30;;;5.20;71.20;;;;;;3587362;39;20028;-63
2021/04/08 05:24:52;;;;;;;7.43;1.60;;;5.10;71.50;;;;;;3588323;39;20015;-63
2021/04/08 05:27:18;;;;;;;10.80;1.73;;;5.20;71.40;;;;;;3579955;40;20040;-63
2021/04/08 05:29:44;;;;;;;12.02;1.88;;;5.30;70.80;;;;;;3587827;39;20020;-63
2021/04/08 05:32:10;;;;;;;8.55;2.05;;;5.30;70.40;;;;;;3588241;39;20035;-63
2021/04/08 05:34:35;;;;;;;8.85;1.75;;;5.20;70.60;;;;;;3588099;39;20266;-63
2021/04/08 05:37:01;;;;;;;8.00;2.15;;;5.20;71.30;;;;;;3584586;39;20020;-63
2021/04/08 05:39:28;;;;;;;7.68;1.77;;;5.20;71.20;;;;;;3585233;40;20028;-62
2021/04/08 05:41:54;;;;;;;6.82;1.52;;;5.20;71.20;;;;;;3586257;39;20044;-63
2021/04/08 05:44:20;;;;;;;12.35;2.20;;;5.10;71.30;;;;;;3588839;39;20032;-64
2021/04/08 05:46:46;;;;;;;9.38;1.88;;;5.20;71.30;;;;;;3587819;39;20316;-57
2021/04/08 05:49:11;;;;;;;11.60;2.15;;;5.30;71.40;;;;;;3590835;39;20039;-58
2021/04/08 05:51:37;;;;;;;12.52;2.95;;;5.40;70.90;;;;;;3583876;39;20067;-58
2021/04/08 05:54:03;;;;;;;8.48;2.42;;;5.30;70.60;;;;;;3584782;39;20027;-59
2021/04/08 05:56:29;;;;;;;9.18;2.15;;;5.30;70.40;;;;;;3588500;39;20039;-58
2021/04/08 05:58:54;;;;;;;7.53;1.95;;;5.40;70.80;;;;;;3585402;39;20028;-61
2021/04/08 06:01:20;;;;;;;9.75;1.95;;;5.30;70.40;;;;;;3586772;39;20401;-58
2021/04/08 06:03:48;;;;;;;11.65;2.75;;;5.40;71.20;;;;;;3587849;39;20309;-58
2021/04/08 06:06:13;;;;;;;15.05;3.30;;;5.50;71.00;;;;;;3586028;39;20071;-58
2021/04/08 06:08:39;;;;;;;12.35;1.88;;;5.70;70.40;;;;;;3587979;39;20101;-57
2021/04/08 06:11:05;;;;;;;14.02;2.10;;;5.80;69.00;;;;;;3587643;39;20024;-56
2021/04/08 06:13:31;;;;;;;6.07;2.38;;;5.80;69.30;;;;;;3589223;39;20024;-57
2021/04/08 06:15:56;;;;;;;7.63;1.50;;;5.90;69.10;;;;;;3586956;39;20063;-57
2021/04/08 06:18:22;;;;;;;12.73;1.73;;;5.90;68.60;;;;;;3586889;39;20036;-57
2021/04/08 06:20:48;;;;;;;8.02;1.70;;;5.80;68.40;;;;;;3586513;39;20401;-57
2021/04/08 06:23:14;;;;;;;10.07;1.70;;;5.80;68.20;;;;;;3584154;39;20036;-57
2021/04/08 06:25:40;;;;;;;9.88;2.22;;;5.80;69.10;;;;;;3584699;39;20402;-57
2021/04/08 06:28:06;;;;;;;11.35;2.90;;;5.90;68.70;;;;;;3581776;39;20035;-57
2021/04/08 06:30:31;;;;;;;11.27;2.00;;;5.90;68.10;;;;;;3585504;39;20028;-57
2021/04/08 06:32:57;;;;;;;10.45;2.50;;;5.70;69.20;;;;;;3588058;39;20076;-58
2021/04/08 06:35:23;;;;;;;12.43;2.75;;;5.60;69.60;;;;;;3585302;39;20040;-58
2021/04/08 06:37:53;;;;;;;8.85;1.63;;;5.60;69.70;;;;;;3591879;39;20079;-57
2021/04/08 06:40:20;;;;;;;10.63;2.03;;;5.60;69.30;;;;;;3583280;39;20043;-58
2021/04/08 06:42:47;;;;;;;10.93;2.65;;;5.70;69.00;;;;;;3589595;39;20586;-57
2021/04/08 06:45:15;;;;;;;11.95;1.80;;;5.70;68.70;;;;;;3588958;39;20076;-57
2021/04/08 06:48:08;;;;;;;8.90;1.70;;;5.80;69.30;;;;;;3584937;39;20063;-59
2021/04/08 06:50:36;;;;;;;7.97;1.63;;;5.90;69.40;;;;;;3588605;39;20324;-58
2021/04/08 06:53:05;;;;;;;7.00;1.80;;;5.90;68.90;;;;;;3584143;39;20024;-58
2021/04/08 06:55:32;;;;;;;8.05;1.65;;;6.10;69.20;;;;;;3585686;39;20040;-58
2021/04/08 06:57:59;;;;;;;8.80;2.10;;;6.30;67.70;;;;;;3589361;39;20420;-59
2021/04/08 07:00:26;;;;;;;8.43;1.60;;;6.50;67.50;;;;;;3589173;39;20090;-58
2021/04/08 07:02:52;;;;;;;8.25;1.67;;;6.70;66.60;;;;;;3586757;39;20325;-59
2021/04/08 07:05:18;;;;;;;7.00;2.00;;;6.70;65.60;;;;;;3585423;39;20029;-58
2021/04/08 07:07:43;;;;;;;11.80;2.60;;;6.80;65.80;;;;;;3588196;39;20418;-58
2021/04/08 07:10:09;;;;;;;7.90;2.15;;;6.80;65.70;;;;;;3587310;39;20031;-58
2021/04/08 07:12:36;;;;;;;13.77;2.50;;;7.20;64.80;;;;;;3582163;39;20090;-58
2021/04/08 07:15:02;;;;;;;15.38;2.40;;;7.60;64.10;;;;;;3587660;39;20500;-58
2021/04/08 07:17:28;;;;;;;9.18;1.83;;;8.10;61.10;;;;;;3584040;39;20047;-58
2021/04/08 07:19:56;;;;;;;6.70;1.80;;;8.20;60.20;;;;;;3587713;39;20023;-58
2021/04/08 07:22:22;;;;;;;10.35;1.85;;;8.20;59.10;;;;;;3582951;39;20327;-57
2021/04/08 07:24:49;;;;;;;11.15;2.20;;;8.20;59.30;;;;;;3589252;39;20833;-58
2021/04/08 07:27:21;;;;;;;11.00;1.70;;;8.20;59.60;;;;;;3583256;39;20041;-57
2021/04/08 07:29:48;;;;;;;7.35;1.80;;;8.10;60.10;;;;;;3585701;39;20043;-57
2021/04/08 07:32:23;;;;;;;12.00;2.35;;;8.00;61.00;;;;;;3583864;39;20698;-57
2021/04/08 07:34:53;;;;;;;8.55;2.08;;;8.00;60.90;;;;;;3585911;39;20028;-56
2021/04/08 07:37:28;;;;;;;12.13;1.88;;;8.10;61.30;;;;;;3587347;39;20017;-57
2021/04/08 07:39:56;;;;;;;11.07;2.17;;;8.10;60.70;;;;;;3587289;39;20031;-57
2021/04/08 07:42:40;;;;;;;9.75;1.98;;;7.80;61.00;;;;;;3585133;39;20539;-57
2021/04/08 07:45:08;;;;;;;5.35;1.50;;;7.70;61.60;;;;;;3587203;39;20508;-59
2021/04/08 07:47:44;;;;;;;7.43;1.90;;;7.60;62.30;;;;;;3584680;39;20048;-58
2021/04/08 07:50:17;;;;;;;8.65;2.10;;;7.70;62.00;;;;;;3585074;39;20065;-57
2021/04/08 07:52:48;;;;;;;15.00;2.15;;;7.80;62.00;;;;;;3586401;39;20407;-58
2021/04/08 07:55:14;;;;;;;5.03;1.70;;;8.00;61.00;;;;;;3587809;39;20020;-58
2021/04/08 07:58:06;;;;;;;10.10;1.88;;;8.10;60.40;;;;;;3585542;40;20113;-59
2021/04/08 08:00:40;;;;;;;5.82;1.80;;;8.20;59.50;;;;;;3581425;40;20028;-58
2021/04/08 08:03:08;;;;;;;10.35;1.88;;;8.30;60.40;;;;;;3590283;39;20692;-58
2021/04/08 08:05:41;;;;;;;17.08;6.18;;;8.60;58.60;;;;;;3585770;39;20032;-58
2021/04/08 08:08:11;;;;;;;9.98;2.30;;;8.80;58.30;;;;;;3583414;39;20077;-58
2021/04/08 08:10:40;;;;;;;10.25;2.08;;;8.90;57.90;;;;;;3584519;39;20020;-58
2021/04/08 08:13:28;;;;;;;9.52;1.77;;;9.20;57.30;;;;;;3592818;39;20856;-58
2021/04/08 08:15:55;;;;;;;6.63;1.30;;;9.70;55.20;;;;;;3584096;40;20842;-58
2021/04/08 08:18:31;;;;;;;9.82;2.17;;;9.90;55.20;;;;;;3582880;39;20039;-58
2021/04/08 08:21:17;;;;;;;6.27;1.40;;;9.90;53.40;;;;;;3586693;39;20039;-58
2021/04/08 08:23:42;;;;;;;7.82;1.52;;;9.50;53.20;;;;;;3592187;39;20293;-58
2021/04/08 08:26:29;;;;;;;6.72;1.45;;;9.80;54.30;;;;;;3588872;39;20433;-58
2021/04/08 08:28:58;;;;;;;4.38;1.50;;;10.50;53.40;;;;;;3580199;40;20103;-57
2021/04/08 08:31:46;;;;;;;10.52;2.28;;;11.20;50.70;;;;;;3587113;39;20043;-59
2021/04/08 08:34:33;;;;;;;9.05;1.75;;;11.20;51.40;;;;;;3586568;39;20036;-60
2021/04/08 08:37:08;;;;;;;8.73;2.60;;;11.00;50.40;;;;;;3587099;39;20036;-58
2021/04/08 08:39:42;;;;;;;8.00;1.88;;;10.40;51.80;;;;;;3581823;39;20402;-58
2021/04/08 08:42:11;;;;;;;8.88;1.52;;;10.20;51.90;;;;;;3587545;39;20048;-58
2021/04/08 08:44:38;;;;;;;11.20;2.00;;;9.80;51.80;;;;;;3586353;39;20032;-59
2021/04/08 08:47:40;;;;;;;6.97;1.52;;;9.50;53.60;;;;;;3588309;39;20040;-59
2021/04/08 08:50:10;;;;;;;8.18;1.90;;;9.50;53.10;;;;;;3577909;40;20032;-58
2021/04/08 08:52:39;;;;;;;5.65;1.75;;;9.60;53.00;;;;;;3580458;40;20013;-58
2021/04/08 08:55:16;;;;;;;6.70;1.38;;;9.80;54.30;;;;;;3587349;39;20033;-59
2021/04/08 08:57:45;;;;;;;9.02;1.83;;;10.00;52.00;;;;;;3586546;39;20501;-59
2021/04/08 09:00:12;;;;;;;7.15;1.45;;;10.20;52.90;;;;;;3584394;39;20751;-58
2021/04/08 09:02:39;;;;;;;5.32;1.30;;;10.30;50.50;;;;;;3588772;39;20080;-58
2021/04/08 09:05:16;;;;;;;7.65;2.45;;;10.70;50.30;;;;;;3586801;39;20036;-58
2021/04/08 09:07:44;;;;;;;11.20;1.90;;;11.00;49.60;;;;;;3584969;40;20713;-59
2021/04/08 09:10:13;;;;;;;13.00;2.78;;;11.80;48.00;;;;;;3587586;39;20091;-59
2021/04/08 09:12:39;;;;;;;11.88;2.35;;;11.80;48.00;;;;;;3584782;39;20031;-59
2021/04/08 09:15:07;;;;;;;8.63;2.00;;;11.40;47.60;;;;;;3585391;39;20105;-59
2021/04/08 09:17:39;;;;;;;5.40;1.63;;;11.10;48.00;;;;;;3579492;40;20036;-58
2021/04/08 09:20:06;;;;;;;7.05;2.60;;;11.40;48.80;;;;;;3585156;39;20031;-58
2021/04/08 09:22:33;;;;;;;7.10;1.65;;;12.00;48.00;;;;;;3585173;39;20072;-58
2021/04/08 09:24:59;;;;;;;4.18;1.52;;;12.00;45.20;;;;;;3584648;39;20044;-58
2021/04/08 09:27:25;;;;;;;7.10;1.65;;;11.80;46.60;;;;;;3585146;39;20028;-58
2021/04/08 09:29:56;;;;;;;7.38;1.40;;;11.70;47.40;;;;;;3583823;39;20146;-58
2021/04/08 09:32:25;;;;;;;2.75;0.93;;;11.40;47.10;;;;;;3586376;39;20027;-58
2021/04/08 09:35:06;;;;;;;5.22;1.65;;;11.10;48.20;;;;;;3591117;39;20119;-57
2021/04/08 09:37:44;;;;;;;5.30;1.77;;;11.00;47.80;;;;;;3588010;39;20640;-58
2021/04/08 09:40:25;;;;;;;6.25;1.40;;;10.90;47.80;;;;;;3586987;39;20085;-58
2021/04/08 09:43:01;;;;;;;6.68;1.42;;;11.10;49.90;;;;;;3589386;39;20116;-59
2021/04/08 09:45:28;;;;;;;7.50;1.07;;;11.40;49.80;;;;;;3589032;39;20036;-58
2021/04/08 09:48:11;;;;;;;7.32;1.17;;;11.40;46.70;;;;;;3588139;39;20320;-58
2021/04/08 09:50:45;;;;;;;8.25;1.88;;;11.30;46.30;;;;;;3588269;39;20109;-58
2021/04/08 09:53:12;;;;;;;5.63;1.33;;;10.80;47.00;;;;;;3588056;39;20029;-58
2021/04/08 09:55:38;;;;;;;8.05;1.45;;;11.10;48.70;;;;;;3586427;39;20035;-59
2021/04/08 09:58:05;;;;;;;10.45;2.13;;;12.20;47.90;;;;;;3584418;39;20025;-59
2021/04/08 10:00:32;;;;;;;5.70;1.30;;;12.80;44.20;;;;;;3585657;39;20024;-59
2021/04/08 10:03:02;;;;;;;4.07;1.08;;;12.80;43.80;;;;;;3583906;39;20630;-59
2021/04/08 10:05:36;;;;;;;9.32;2.00;;;12.40;44.80;;;;;;3590511;39;20032;-59
2021/04/08 10:08:02;;;;;;;7.82;1.88;;;12.00;45.30;;;;;;3584078;39;20126;-58
2021/04/08 10:10:37;;;;;;;4.43;1.23;;;11.60;45.90;;;;;;3582107;40;20021;-58
2021/04/08 10:13:17;;;;;;;6.22;1.40;;;11.10;45.50;;;;;;3587598;39;20088;-58
2021/04/08 10:15:43;;;;;;;8.43;1.77;;;10.70;47.90;;;;;;3586835;39;20107;-58
2021/04/08 10:18:13;;;;;;;7.72;1.50;;;10.50;48.80;;;;;;3586062;39;20044;-59
2021/04/08 10:20:44;;;;;;;9.00;1.83;;;10.40;48.50;;;;;;3586036;39;20082;-57
2021/04/08 10:23:10;;;;;;;3.15;1.50;;;10.20;49.00;;;;;;3588411;39;20050;-57
2021/04/08 10:25:36;;;;;;;4.55;1.35;;;10.20;49.20;;;;;;3589509;39;20042;-57
2021/04/08 10:28:03;;;;;;;5.82;1.33;;;10.20;48.10;;;;;;3587199;39;20609;-59
2021/04/08 10:30:38;;;;;;;7.40;1.60;;;10.30;49.20;;;;;;3586307;39;20032;-58
2021/04/08 10:33:18;;;;;;;5.88;1.40;;;10.40;48.30;;;;;;3589427;39;20027;-59
2021/04/08 10:35:44;;;;;;;7.70;1.83;;;10.30;48.40;;;;;;3586771;39;20723;-58
2021/04/08 10:38:10;;;;;;;9.68;1.55;;;10.30;48.80;;;;;;3586493;39;20067;-58
2021/04/08 10:40:37;;;;;;;6.47;1.20;;;10.30;48.00;;;;;;3582824;39;20899;-56
2021/04/08 10:43:08;;;;;;;9.10;1.25;;;10.30;46.50;;;;;;3586461;39;20295;-58
2021/04/08 10:45:34;;;;;;;7.93;1.23;;;10.30;47.30;;;;;;3585687;39;20558;-57
2021/04/08 10:48:01;;;;;;;9.10;1.38;;;10.40;47.20;;;;;;3588163;39;20032;-58
2021/04/08 10:50:27;;;;;;;5.22;0.98;;;10.40;46.70;;;;;;3584430;39;20733;-58
2021/04/08 10:52:53;;;;;;;3.47;0.95;;;10.50;47.40;;;;;;3583630;39;20471;-58
2021/04/08 10:55:23;;;;;;;7.90;1.63;;;10.50;48.30;;;;;;3583189;39;20352;-62
2021/04/08 10:57:49;;;;;;;6.65;1.33;;;10.50;48.80;;;;;;3578921;40;20028;-58
2021/04/08 11:00:17;;;;;;;4.78;1.38;;;10.50;49.50;;;;;;3583723;39;20032;-60
2021/04/08 11:02:44;;;;;;;6.93;1.42;;;10.60;50.10;;;;;;3586305;39;20146;-58
2021/04/08 11:05:20;;;;;;;4.88;0.98;;;10.60;48.20;;;;;;3585332;39;20345;-58
2021/04/08 11:07:48;;;;;;;6.95;1.50;;;10.70;49.30;;;;;;3584318;39;20036;-59
2021/04/08 11:10:18;;;;;;;5.72;1.25;;;10.80;49.30;;;;;;3582806;39;20041;-59
2021/04/08 11:12:48;;;;;;;2.85;1.00;;;11.00;49.00;;;;;;3587201;39;20027;-59
2021/04/08 11:15:14;;;;;;;5.45;1.05;;;11.20;44.40;;;;;;3585276;39;20043;-60
2021/04/08 11:17:45;;;;;;;8.73;0.93;;;11.30;43.40;;;;;;3585725;39;20040;-58
2021/04/08 11:20:12;;;;;;;5.53;0.93;;;11.10;43.40;;;;;;3585688;39;20028;-58
2021/04/08 11:22:45;;;;;;;2.65;0.95;;;10.90;44.80;;;;;;3586601;39;20048;-62
2021/04/08 11:25:13;;;;;;;4.68;0.90;;;10.60;45.30;;;;;;3587088;39;20032;-59
2021/04/08 11:27:43;;;;;;;5.05;1.48;;;10.50;45.00;;;;;;3588466;39;20294;-61
2021/04/08 11:30:14;;;;;;;5.57;1.55;;;10.50;47.10;;;;;;3588353;39;20027;-59
2021/04/08 11:32:50;;;;;;;8.68;2.20;;;10.70;48.10;;;;;;3586948;39;20053;-58
2021/04/08 11:35:35;;;;;;;8.38;1.63;;;10.70;46.60;;;;;;3585991;39;20398;-58
2021/04/08 11:38:19;;;;;;;8.88;2.20;;;10.50;47.50;;;;;;3587306;39;20044;-59
2021/04/08 11:41:06;;;;;;;4.95;1.60;;;10.30;46.90;;;;;;3587243;39;20803;-59
2021/04/08 11:43:33;;;;;;;11.93;2.83;;;10.10;48.00;;;;;;3589471;39;20031;-59
2021/04/08 11:46:01;;;;;;;10.30;2.50;;;10.00;48.00;;;;;;3586368;39;20068;-59
2021/04/08 11:48:41;;;;;;;10.60;1.52;;;9.90;48.40;;;;;;3588872;39;20107;-59
2021/04/08 11:51:07;;;;;;;6.85;2.75;;;9.80;49.00;;;;;;3584571;39;20084;-59
2021/04/08 11:53:35;;;;;;;6.13;1.33;;;9.70;48.30;;;;;;3582903;39;20028;-59
2021/04/08 11:56:02;;;;;;;6.80;1.50;;;9.70;48.80;;;;;;3588124;39;20398;-59
2021/04/08 11:58:30;;;;;;;6.28;1.13;;;9.80;49.00;;;;;;3593604;39;20038;-59
2021/04/08 12:01:14;;;;;;;9.02;1.20;;;10.10;49.00;;;;;;3587914;39;20037;-59
2021/04/08 12:03:45;;;;;;;5.50;1.20;;;10.30;47.60;;;;;;3587133;39;20037;-59
2021/04/08 12:06:18;;;;;;;8.93;1.33;;;10.50;48.60;;;;;;3586120;39;20028;-59
2021/04/08 12:08:51;;;;;;;1.95;0.93;;;10.70;48.60;;;;;;3586205;39;20016;-59
2021/04/08 12:11:18;;;;;;;4.70;1.25;;;10.70;47.00;;;;;;3590134;39;20040;-59
2021/04/08 12:13:59;;;;;;;8.95;1.38;;;10.50;47.30;;;;;;3581826;40;20039;-59
2021/04/08 12:16:26;;;;;;;4.95;0.80;;;10.20;49.10;;;;;;3586096;39;20129;-59
2021/04/08 12:18:52;;;;;;;10.98;1.10;;;10.10;48.30;;;;;;3582694;39;20031;-59
2021/04/08 12:21:19;;;;;;;5.65;1.55;;;9.80;47.80;;;;;;3584650;39;20016;-59
2021/04/08 12:23:46;;;;;;;3.70;1.73;;;9.80;49.30;;;;;;3588406;39;20804;-58
2021/04/08 12:26:12;;;;;;;3.28;0.95;;;9.70;49.30;;;;;;3589668;39;20059;-59
2021/04/08 12:28:40;;;;;;;6.20;1.60;;;9.60;49.10;;;;;;3585865;39;20649;-59
2021/04/08 12:31:06;;;;;;;6.40;1.13;;;9.50;50.30;;;;;;3582327;39;20029;-59
2021/04/08 12:33:40;;;;;;;6.13;1.20;;;9.40;50.40;;;;;;3581491;39;20044;-58
2021/04/08 12:36:08;;;;;;;8.02;1.27;;;9.30;50.20;;;;;;3587118;39;20102;-59
2021/04/08 12:38:34;;;;;;;5.47;1.25;;;9.20;51.20;;;;;;3580878;40;20025;-59
2021/04/08 12:41:00;;;;;;;3.08;0.80;;;9.40;51.70;;;;;;3582505;39;20043;-59
2021/04/08 12:43:27;;;;;;;7.70;1.55;;;9.60;50.90;;;;;;3584146;39;20408;-59
2021/04/08 12:45:54;;;;;;;4.00;0.80;;;9.70;50.20;;;;;;3582925;39;20112;-60
2021/04/08 12:48:20;;;;;;;5.93;1.25;;;10.00;49.50;;;;;;3585603;39;20043;-59
2021/04/08 12:50:47;;;;;;;6.85;1.10;;;10.20;49.20;;;;;;3580379;39;20048;-59
2021/04/08 12:53:14;;;;;;;6.40;1.65;;;10.50;49.30;;;;;;3582987;39;20048;-59
2021/04/08 12:55:40;;;;;;;7.43;1.30;;;10.70;50.30;;;;;;3586509;39;20036;-59
2021/04/08 12:58:07;;;;;;;6.45;1.52;;;10.70;49.20;;;;;;3583483;39;20124;-60
2021/04/08 13:00:34;;;;;;;7.10;1.58;;;10.10;49.40;;;;;;3585565;39;20423;-59
2021/04/08 13:03:00;;;;;;;4.13;1.00;;;9.70;51.80;;;;;;3581242;40;20801;-59